sensor_id;sensor_type;location;lat;lon;timestamp;temperature;humidity
58582;DHT22;44361;51.476;5.700;2023-03-29T00:01:47;6.20;99.90
58582;DHT22;44361;51.476;5.700;2023-03-29T00:04:14;6.10;99.90
58582;DHT22;44361;51.476;5.700;2023-03-29T00:06:44;6.20;99.90
58582;DHT22;44361;51.476;5.700;2023-03-29T00:09:15;6.20;99.90
58582;DHT22;44361;51.476;5.700;2023-03-29T00:11:41;6.20;99.90
58582;DHT22;44361;51.476;5.700;2023-03-29T00:14:06;6.10;99.90
58582;DHT22;44361;51.476;5.700;2023-03-29T00:16:32;6.10;99.90
58582;DHT22;44361;51.476;5.700;2023-03-29T00:18:58;6.10;99.90
58582;DHT22;44361;51.476;5.700;2023-03-29T00:21:23;6.10;99.90
58582;DHT22;44361;51.476;5.700;2023-03-29T00:23:49;6.10;99.90
58582;DHT22;44361;51.476;5.700;2023-03-29T00:26:14;6.20;99.90
58582;DHT22;44361;51.476;5.700;2023-03-29T00:28:40;6.20;99.90
58582;DHT22;44361;51.476;5.700;2023-03-29T00:31:08;6.10;99.90
58582;DHT22;44361;51.476;5.700;2023-03-29T00:33:34;6.10;99.90
58582;DHT22;44361;51.476;5.700;2023-03-29T00:36:00;6.10;99.90
58582;DHT22;44361;51.476;5.700;2023-03-29T00:38:26;6.10;99.90
58582;DHT22;44361;51.476;5.700;2023-03-29T00:40:52;6.20;99.90
58582;DHT22;44361;51.476;5.700;2023-03-29T00:43:18;6.20;99.90
58582;DHT22;44361;51.476;5.700;2023-03-29T00:45:43;6.20;99.90
58582;DHT22;44361;51.476;5.700;2023-03-29T00:48:35;6.20;99.90
58582;DHT22;44361;51.476;5.700;2023-03-29T00:51:05;6.10;99.90
58582;DHT22;44361;51.476;5.700;2023-03-29T00:53:35;6.20;99.90
58582;DHT22;44361;51.476;5.700;2023-03-29T00:56:08;6.10;99.90
58582;DHT22;44361;51.476;5.700;2023-03-29T00:58:46;6.20;99.90
58582;DHT22;44361;51.476;5.700;2023-03-29T01:01:16;6.20;99.90
58582;DHT22;44361;51.476;5.700;2023-03-29T01:03:55;6.20;99.90
58582;DHT22;44361;51.476;5.700;2023-03-29T01:06:25;6.30;99.90
58582;DHT22;44361;51.476;5.700;2023-03-29T01:08:56;6.20;99.90
58582;DHT22;44361;51.476;5.700;2023-03-29T01:11:43;6.20;99.90
58582;DHT22;44361;51.476;5.700;2023-03-29T01:14:15;6.20;99.90
58582;DHT22;44361;51.476;5.700;2023-03-29T01:16:42;6.30;99.90
58582;DHT22;44361;51.476;5.700;2023-03-29T01:19:09;6.30;99.90
58582;DHT22;44361;51.476;5.700;2023-03-29T01:21:49;6.30;99.90
58582;DHT22;44361;51.476;5.700;2023-03-29T01:27:04;6.40;99.90
58582;DHT22;44361;51.476;5.700;2023-03-29T01:29:39;6.30;99.90
58582;DHT22;44361;51.476;5.700;2023-03-29T01:32:18;6.40;99.90
58582;DHT22;44361;51.476;5.700;2023-03-29T01:34:55;6.40;99.90
58582;DHT22;44361;51.476;5.700;2023-03-29T01:37:36;6.40;99.90
58582;DHT22;44361;51.476;5.700;2023-03-29T01:40:03;6.50;99.90
58582;DHT22;44361;51.476;5.700;2023-03-29T01:42:40;6.50;99.90
58582;DHT22;44361;51.476;5.700;2023-03-29T01:45:23;6.50;99.90
58582;DHT22;44361;51.476;5.700;2023-03-29T01:47:56;6.50;99.90
58582;DHT22;44361;51.476;5.700;2023-03-29T01:50:43;6.50;99.90
58582;DHT22;44361;51.476;5.700;2023-03-29T01:53:20;6.50;99.90
58582;DHT22;44361;51.476;5.700;2023-03-29T01:55:51;6.50;99.90
58582;DHT22;44361;51.476;5.700;2023-03-29T01:58:22;6.50;99.90
58582;DHT22;44361;51.476;5.700;2023-03-29T02:00:49;6.50;99.90
58582;DHT22;44361;51.476;5.700;2023-03-29T02:03:20;6.50;99.90
58582;DHT22;44361;51.476;5.700;2023-03-29T02:05:48;6.60;99.90
58582;DHT22;44361;51.476;5.700;2023-03-29T02:08:18;6.60;99.90
58582;DHT22;44361;51.476;5.700;2023-03-29T02:10:46;6.60;99.90
58582;DHT22;44361;51.476;5.700;2023-03-29T02:13:12;6.70;99.90
58582;DHT22;44361;51.476;5.700;2023-03-29T02:15:38;6.70;99.90
58582;DHT22;44361;51.476;5.700;2023-03-29T02:18:04;6.70;99.90
58582;DHT22;44361;51.476;5.700;2023-03-29T02:20:39;6.70;99.90
58582;DHT22;44361;51.476;5.700;2023-03-29T02:23:14;6.70;99.90
58582;DHT22;44361;51.476;5.700;2023-03-29T02:25:43;6.70;99.90
58582;DHT22;44361;51.476;5.700;2023-03-29T02:28:10;6.70;99.90
58582;DHT22;44361;51.476;5.700;2023-03-29T02:30:59;6.70;99.90
58582;DHT22;44361;51.476;5.700;2023-03-29T02:33:56;6.70;99.90
58582;DHT22;44361;51.476;5.700;2023-03-29T02:36:28;6.80;99.90
58582;DHT22;44361;51.476;5.700;2023-03-29T02:38:57;6.80;99.90
58582;DHT22;44361;51.476;5.700;2023-03-29T02:41:25;6.80;99.90
58582;DHT22;44361;51.476;5.700;2023-03-29T02:43:51;6.80;99.90
58582;DHT22;44361;51.476;5.700;2023-03-29T02:46:19;6.80;99.90
58582;DHT22;44361;51.476;5.700;2023-03-29T02:48:46;6.80;99.90
58582;DHT22;44361;51.476;5.700;2023-03-29T02:51:20;6.80;99.90
58582;DHT22;44361;51.476;5.700;2023-03-29T02:53:58;6.80;99.90
58582;DHT22;44361;51.476;5.700;2023-03-29T02:56:25;6.80;99.90
58582;DHT22;44361;51.476;5.700;2023-03-29T02:58:51;6.80;99.90
58582;DHT22;44361;51.476;5.700;2023-03-29T03:01:17;6.80;99.90
58582;DHT22;44361;51.476;5.700;2023-03-29T03:03:45;6.90;99.90
58582;DHT22;44361;51.476;5.700;2023-03-29T03:06:11;7.00;99.90
58582;DHT22;44361;51.476;5.700;2023-03-29T03:08:37;7.00;99.90
58582;DHT22;44361;51.476;5.700;2023-03-29T03:11:04;7.00;99.90
58582;DHT22;44361;51.476;5.700;2023-03-29T03:13:30;7.00;99.90
58582;DHT22;44361;51.476;5.700;2023-03-29T03:15:55;7.00;99.90
58582;DHT22;44361;51.476;5.700;2023-03-29T03:18:21;7.10;99.90
58582;DHT22;44361;51.476;5.700;2023-03-29T03:20:57;7.10;99.90
58582;DHT22;44361;51.476;5.700;2023-03-29T03:23:26;7.10;99.90
58582;DHT22;44361;51.476;5.700;2023-03-29T03:25:51;7.10;99.90
58582;DHT22;44361;51.476;5.700;2023-03-29T03:28:17;7.10;99.90
58582;DHT22;44361;51.476;5.700;2023-03-29T03:30:43;7.10;99.90
58582;DHT22;44361;51.476;5.700;2023-03-29T03:33:09;7.10;99.90
58582;DHT22;44361;51.476;5.700;2023-03-29T03:35:35;7.20;99.90
58582;DHT22;44361;51.476;5.700;2023-03-29T03:38:03;7.10;99.90
58582;DHT22;44361;51.476;5.700;2023-03-29T03:40:28;7.20;99.90
58582;DHT22;44361;51.476;5.700;2023-03-29T03:42:54;7.20;99.90
58582;DHT22;44361;51.476;5.700;2023-03-29T03:45:20;7.20;99.90
58582;DHT22;44361;51.476;5.700;2023-03-29T03:47:45;7.30;99.90
58582;DHT22;44361;51.476;5.700;2023-03-29T03:50:11;7.30;99.90
58582;DHT22;44361;51.476;5.700;2023-03-29T03:52:38;7.20;99.90
58582;DHT22;44361;51.476;5.700;2023-03-29T03:55:04;7.20;99.90
58582;DHT22;44361;51.476;5.700;2023-03-29T03:57:29;7.30;99.90
58582;DHT22;44361;51.476;5.700;2023-03-29T03:59:57;7.30;99.90
58582;DHT22;44361;51.476;5.700;2023-03-29T04:02:23;7.30;99.90
58582;DHT22;44361;51.476;5.700;2023-03-29T04:04:48;7.30;99.90
58582;DHT22;44361;51.476;5.700;2023-03-29T04:07:14;7.30;99.90
58582;DHT22;44361;51.476;5.700;2023-03-29T04:09:42;7.30;99.90
58582;DHT22;44361;51.476;5.700;2023-03-29T04:12:09;7.40;99.90
58582;DHT22;44361;51.476;5.700;2023-03-29T04:14:35;7.30;99.90
58582;DHT22;44361;51.476;5.700;2023-03-29T04:17:00;7.40;99.90
58582;DHT22;44361;51.476;5.700;2023-03-29T04:19:26;7.40;99.90
58582;DHT22;44361;51.476;5.700;2023-03-29T04:21:51;7.30;99.90
58582;DHT22;44361;51.476;5.700;2023-03-29T04:24:17;7.30;99.90
58582;DHT22;44361;51.476;5.700;2023-03-29T04:26:43;7.40;99.90
58582;DHT22;44361;51.476;5.700;2023-03-29T04:29:08;7.40;99.90
58582;DHT22;44361;51.476;5.700;2023-03-29T04:31:34;7.30;99.90
58582;DHT22;44361;51.476;5.700;2023-03-29T04:34:00;7.20;99.90
58582;DHT22;44361;51.476;5.700;2023-03-29T04:36:25;7.20;99.90
58582;DHT22;44361;51.476;5.700;2023-03-29T04:38:51;7.20;99.90
58582;DHT22;44361;51.476;5.700;2023-03-29T04:41:18;7.20;99.90
58582;DHT22;44361;51.476;5.700;2023-03-29T04:43:44;7.20;99.90
58582;DHT22;44361;51.476;5.700;2023-03-29T04:46:11;7.10;99.90
58582;DHT22;44361;51.476;5.700;2023-03-29T04:48:37;7.20;99.90
58582;DHT22;44361;51.476;5.700;2023-03-29T04:51:03;7.20;99.90
58582;DHT22;44361;51.476;5.700;2023-03-29T04:53:29;7.20;99.90
58582;DHT22;44361;51.476;5.700;2023-03-29T04:55:54;7.30;99.90
58582;DHT22;44361;51.476;5.700;2023-03-29T04:58:22;7.30;99.90
58582;DHT22;44361;51.476;5.700;2023-03-29T05:00:47;7.40;99.90
58582;DHT22;44361;51.476;5.700;2023-03-29T05:03:13;7.30;99.90
58582;DHT22;44361;51.476;5.700;2023-03-29T05:05:40;7.30;99.90
58582;DHT22;44361;51.476;5.700;2023-03-29T05:08:06;7.30;99.90
58582;DHT22;44361;51.476;5.700;2023-03-29T05:10:34;7.30;99.90
58582;DHT22;44361;51.476;5.700;2023-03-29T05:13:00;7.30;99.90
58582;DHT22;44361;51.476;5.700;2023-03-29T05:15:28;7.40;99.90
58582;DHT22;44361;51.476;5.700;2023-03-29T05:17:54;7.40;99.90
58582;DHT22;44361;51.476;5.700;2023-03-29T05:20:19;7.50;99.90
58582;DHT22;44361;51.476;5.700;2023-03-29T05:22:46;7.50;99.90
58582;DHT22;44361;51.476;5.700;2023-03-29T05:25:13;7.50;99.90
58582;DHT22;44361;51.476;5.700;2023-03-29T05:27:39;7.60;99.90
58582;DHT22;44361;51.476;5.700;2023-03-29T05:30:05;7.60;99.90
58582;DHT22;44361;51.476;5.700;2023-03-29T05:32:30;7.60;99.90
58582;DHT22;44361;51.476;5.700;2023-03-29T05:34:56;7.60;99.90
58582;DHT22;44361;51.476;5.700;2023-03-29T05:37:22;7.60;99.90
58582;DHT22;44361;51.476;5.700;2023-03-29T05:39:47;7.60;99.90
58582;DHT22;44361;51.476;5.700;2023-03-29T05:42:13;7.70;99.90
58582;DHT22;44361;51.476;5.700;2023-03-29T05:44:40;7.60;99.90
58582;DHT22;44361;51.476;5.700;2023-03-29T05:47:05;7.70;99.90
58582;DHT22;44361;51.476;5.700;2023-03-29T05:49:33;7.70;99.90
58582;DHT22;44361;51.476;5.700;2023-03-29T05:51:59;7.70;99.90
58582;DHT22;44361;51.476;5.700;2023-03-29T05:54:25;7.80;99.90
58582;DHT22;44361;51.476;5.700;2023-03-29T05:56:51;7.80;99.90
58582;DHT22;44361;51.476;5.700;2023-03-29T05:59:17;7.90;99.90
58582;DHT22;44361;51.476;5.700;2023-03-29T06:01:44;7.90;99.90
58582;DHT22;44361;51.476;5.700;2023-03-29T06:04:12;8.00;99.90
58582;DHT22;44361;51.476;5.700;2023-03-29T06:06:37;8.00;99.90
58582;DHT22;44361;51.476;5.700;2023-03-29T06:09:03;8.00;99.90
58582;DHT22;44361;51.476;5.700;2023-03-29T06:11:30;8.10;99.90
58582;DHT22;44361;51.476;5.700;2023-03-29T06:13:57;8.20;99.90
58582;DHT22;44361;51.476;5.700;2023-03-29T06:16:23;8.20;99.90
58582;DHT22;44361;51.476;5.700;2023-03-29T06:18:48;8.30;99.90
58582;DHT22;44361;51.476;5.700;2023-03-29T06:21:14;8.30;99.90
58582;DHT22;44361;51.476;5.700;2023-03-29T06:23:41;8.30;99.90
58582;DHT22;44361;51.476;5.700;2023-03-29T06:26:06;8.40;99.90
58582;DHT22;44361;51.476;5.700;2023-03-29T06:28:32;8.50;99.90
58582;DHT22;44361;51.476;5.700;2023-03-29T06:30:58;8.50;99.90
58582;DHT22;44361;51.476;5.700;2023-03-29T06:33:30;8.60;99.90
58582;DHT22;44361;51.476;5.700;2023-03-29T06:35:57;8.60;99.90
58582;DHT22;44361;51.476;5.700;2023-03-29T06:38:22;8.70;99.90
58582;DHT22;44361;51.476;5.700;2023-03-29T06:40:49;8.70;99.90
58582;DHT22;44361;51.476;5.700;2023-03-29T06:43:16;8.70;99.90
58582;DHT22;44361;51.476;5.700;2023-03-29T06:45:41;8.80;99.90
58582;DHT22;44361;51.476;5.700;2023-03-29T06:48:09;8.80;99.90
58582;DHT22;44361;51.476;5.700;2023-03-29T06:50:35;8.90;99.90
58582;DHT22;44361;51.476;5.700;2023-03-29T06:53:02;8.90;99.90
58582;DHT22;44361;51.476;5.700;2023-03-29T06:55:28;8.90;99.90
58582;DHT22;44361;51.476;5.700;2023-03-29T06:57:54;9.00;99.90
58582;DHT22;44361;51.476;5.700;2023-03-29T07:00:20;9.00;99.90
58582;DHT22;44361;51.476;5.700;2023-03-29T07:02:53;9.10;99.90
58582;DHT22;44361;51.476;5.700;2023-03-29T07:05:20;9.00;99.90
58582;DHT22;44361;51.476;5.700;2023-03-29T07:07:46;9.00;99.90
58582;DHT22;44361;51.476;5.700;2023-03-29T07:10:28;9.10;99.90
58582;DHT22;44361;51.476;5.700;2023-03-29T07:12:59;9.20;99.90
58582;DHT22;44361;51.476;5.700;2023-03-29T07:15:26;9.30;99.90
58582;DHT22;44361;51.476;5.700;2023-03-29T07:17:52;9.40;99.90
58582;DHT22;44361;51.476;5.700;2023-03-29T07:20:18;9.50;99.90
58582;DHT22;44361;51.476;5.700;2023-03-29T07:22:48;9.50;99.90
58582;DHT22;44361;51.476;5.700;2023-03-29T07:25:16;9.60;99.90
58582;DHT22;44361;51.476;5.700;2023-03-29T07:27:43;9.50;99.90
58582;DHT22;44361;51.476;5.700;2023-03-29T07:30:11;9.60;99.90
58582;DHT22;44361;51.476;5.700;2023-03-29T07:32:38;9.60;99.90
58582;DHT22;44361;51.476;5.700;2023-03-29T07:35:05;9.60;99.90
58582;DHT22;44361;51.476;5.700;2023-03-29T07:37:37;9.70;99.90
58582;DHT22;44361;51.476;5.700;2023-03-29T07:40:05;9.70;99.90
58582;DHT22;44361;51.476;5.700;2023-03-29T07:42:37;9.80;99.90
58582;DHT22;44361;51.476;5.700;2023-03-29T07:45:04;9.80;99.90
58582;DHT22;44361;51.476;5.700;2023-03-29T07:47:30;9.80;99.90
58582;DHT22;44361;51.476;5.700;2023-03-29T07:49:56;9.80;99.90
58582;DHT22;44361;51.476;5.700;2023-03-29T07:52:23;9.80;99.90
58582;DHT22;44361;51.476;5.700;2023-03-29T07:54:49;9.80;99.90
58582;DHT22;44361;51.476;5.700;2023-03-29T07:57:14;9.80;99.90
58582;DHT22;44361;51.476;5.700;2023-03-29T07:59:40;9.70;99.90
58582;DHT22;44361;51.476;5.700;2023-03-29T08:02:05;9.70;99.90
58582;DHT22;44361;51.476;5.700;2023-03-29T08:04:31;9.70;99.90
58582;DHT22;44361;51.476;5.700;2023-03-29T08:06:57;9.60;99.90
58582;DHT22;44361;51.476;5.700;2023-03-29T08:09:23;9.80;99.90
58582;DHT22;44361;51.476;5.700;2023-03-29T08:11:48;9.70;99.90
58582;DHT22;44361;51.476;5.700;2023-03-29T08:14:14;9.60;99.90
58582;DHT22;44361;51.476;5.700;2023-03-29T08:16:39;9.50;99.90
58582;DHT22;44361;51.476;5.700;2023-03-29T08:19:05;9.50;99.90
58582;DHT22;44361;51.476;5.700;2023-03-29T08:21:31;9.50;99.90
58582;DHT22;44361;51.476;5.700;2023-03-29T08:23:57;9.50;99.90
58582;DHT22;44361;51.476;5.700;2023-03-29T08:26:22;9.60;99.90
58582;DHT22;44361;51.476;5.700;2023-03-29T08:28:48;9.70;99.90
58582;DHT22;44361;51.476;5.700;2023-03-29T08:31:13;9.90;99.90
58582;DHT22;44361;51.476;5.700;2023-03-29T08:33:39;10.00;99.90
58582;DHT22;44361;51.476;5.700;2023-03-29T08:36:06;10.20;99.90
58582;DHT22;44361;51.476;5.700;2023-03-29T08:38:32;10.30;99.90
58582;DHT22;44361;51.476;5.700;2023-03-29T08:40:58;10.30;99.90
58582;DHT22;44361;51.476;5.700;2023-03-29T08:43:51;10.40;99.90
58582;DHT22;44361;51.476;5.700;2023-03-29T08:46:32;10.40;99.90
58582;DHT22;44361;51.476;5.700;2023-03-29T08:49:01;10.50;99.90
58582;DHT22;44361;51.476;5.700;2023-03-29T08:51:41;10.40;99.90
58582;DHT22;44361;51.476;5.700;2023-03-29T08:54:19;10.30;99.90
58582;DHT22;44361;51.476;5.700;2023-03-29T08:56:55;10.10;99.90
58582;DHT22;44361;51.476;5.700;2023-03-29T08:59:29;9.90;99.90
58582;DHT22;44361;51.476;5.700;2023-03-29T09:01:56;9.80;99.90
58582;DHT22;44361;51.476;5.700;2023-03-29T09:04:26;9.70;99.90
58582;DHT22;44361;51.476;5.700;2023-03-29T09:06:52;9.70;99.90
58582;DHT22;44361;51.476;5.700;2023-03-29T09:09:21;9.70;99.90
58582;DHT22;44361;51.476;5.700;2023-03-29T09:12:12;9.80;99.90
58582;DHT22;44361;51.476;5.700;2023-03-29T09:20:30;9.90;99.90
58582;DHT22;44361;51.476;5.700;2023-03-29T09:26:05;10.30;99.90
58582;DHT22;44361;51.476;5.700;2023-03-29T09:28:35;10.50;99.90
58582;DHT22;44361;51.476;5.700;2023-03-29T09:31:12;10.70;99.90
58582;DHT22;44361;51.476;5.700;2023-03-29T09:33:57;11.20;99.90
58582;DHT22;44361;51.476;5.700;2023-03-29T09:36:49;11.50;99.90
58582;DHT22;44361;51.476;5.700;2023-03-29T09:39:17;11.80;99.90
58582;DHT22;44361;51.476;5.700;2023-03-29T09:44:20;12.10;99.90
58582;DHT22;44361;51.476;5.700;2023-03-29T09:46:55;11.90;99.90
58582;DHT22;44361;51.476;5.700;2023-03-29T09:49:26;11.80;99.90
58582;DHT22;44361;51.476;5.700;2023-03-29T09:51:55;11.70;99.90
58582;DHT22;44361;51.476;5.700;2023-03-29T09:54:23;11.70;99.90
58582;DHT22;44361;51.476;5.700;2023-03-29T09:56:49;11.80;99.90
58582;DHT22;44361;51.476;5.700;2023-03-29T09:59:16;11.70;99.90
58582;DHT22;44361;51.476;5.700;2023-03-29T10:01:42;11.40;99.90
58582;DHT22;44361;51.476;5.700;2023-03-29T10:04:11;11.20;99.90
58582;DHT22;44361;51.476;5.700;2023-03-29T10:06:48;11.10;99.90
58582;DHT22;44361;51.476;5.700;2023-03-29T10:09:18;11.10;99.90
58582;DHT22;44361;51.476;5.700;2023-03-29T10:11:53;11.10;99.90
58582;DHT22;44361;51.476;5.700;2023-03-29T10:14:30;11.10;99.90
58582;DHT22;44361;51.476;5.700;2023-03-29T10:16:58;11.00;99.90
58582;DHT22;44361;51.476;5.700;2023-03-29T10:19:34;11.00;99.90
58582;DHT22;44361;51.476;5.700;2023-03-29T10:22:02;11.10;99.90
58582;DHT22;44361;51.476;5.700;2023-03-29T10:24:29;11.30;99.90
58582;DHT22;44361;51.476;5.700;2023-03-29T10:27:13;11.40;99.90
58582;DHT22;44361;51.476;5.700;2023-03-29T10:29:43;11.40;99.90
58582;DHT22;44361;51.476;5.700;2023-03-29T10:34:47;11.60;99.90
58582;DHT22;44361;51.476;5.700;2023-03-29T10:37:15;12.00;99.90
58582;DHT22;44361;51.476;5.700;2023-03-29T10:39:44;12.50;99.90
58582;DHT22;44361;51.476;5.700;2023-03-29T10:42:13;12.80;99.90
58582;DHT22;44361;51.476;5.700;2023-03-29T10:44:39;13.30;99.90
58582;DHT22;44361;51.476;5.700;2023-03-29T10:52:16;13.60;99.90
58582;DHT22;44361;51.476;5.700;2023-03-29T10:54:42;13.60;99.90
58582;DHT22;44361;51.476;5.700;2023-03-29T10:57:12;13.60;99.90
58582;DHT22;44361;51.476;5.700;2023-03-29T10:59:52;13.80;99.90
58582;DHT22;44361;51.476;5.700;2023-03-29T11:05:20;13.90;99.90
58582;DHT22;44361;51.476;5.700;2023-03-29T11:08:20;13.90;99.90
58582;DHT22;44361;51.476;5.700;2023-03-29T11:16:56;14.50;99.90
58582;DHT22;44361;51.476;5.700;2023-03-29T11:22:39;14.50;99.90
58582;DHT22;44361;51.476;5.700;2023-03-29T11:25:35;14.90;99.90
58582;DHT22;44361;51.476;5.700;2023-03-29T11:28:51;14.60;99.90
58582;DHT22;44361;51.476;5.700;2023-03-29T11:31:17;14.40;99.90
58582;DHT22;44361;51.476;5.700;2023-03-29T11:36:58;14.60;99.90
58582;DHT22;44361;51.476;5.700;2023-03-29T11:42:28;14.90;99.90
58582;DHT22;44361;51.476;5.700;2023-03-29T11:44:58;14.90;99.90
58582;DHT22;44361;51.476;5.700;2023-03-29T11:47:29;15.00;99.90
58582;DHT22;44361;51.476;5.700;2023-03-29T11:49:59;15.00;99.90
58582;DHT22;44361;51.476;5.700;2023-03-29T11:52:55;15.10;99.90
58582;DHT22;44361;51.476;5.700;2023-03-29T11:55:49;14.90;99.90
58582;DHT22;44361;51.476;5.700;2023-03-29T11:58:26;14.90;99.90
58582;DHT22;44361;51.476;5.700;2023-03-29T12:01:03;15.10;99.90
58582;DHT22;44361;51.476;5.700;2023-03-29T12:03:36;15.20;99.90
58582;DHT22;44361;51.476;5.700;2023-03-29T12:06:13;15.40;99.90
58582;DHT22;44361;51.476;5.700;2023-03-29T12:08:47;15.60;99.90
58582;DHT22;44361;51.476;5.700;2023-03-29T12:11:26;15.80;99.90
58582;DHT22;44361;51.476;5.700;2023-03-29T12:13:57;15.90;99.90
58582;DHT22;44361;51.476;5.700;2023-03-29T12:16:36;15.70;99.90
58582;DHT22;44361;51.476;5.700;2023-03-29T12:19:13;15.80;99.90
58582;DHT22;44361;51.476;5.700;2023-03-29T12:21:41;15.80;99.90
58582;DHT22;44361;51.476;5.700;2023-03-29T12:24:16;15.60;99.90
58582;DHT22;44361;51.476;5.700;2023-03-29T12:27:05;15.70;99.90
58582;DHT22;44361;51.476;5.700;2023-03-29T12:35:22;16.40;99.90
58582;DHT22;44361;51.476;5.700;2023-03-29T12:38:13;16.60;99.90
58582;DHT22;44361;51.476;5.700;2023-03-29T12:40:42;16.70;99.90
58582;DHT22;44361;51.476;5.700;2023-03-29T12:43:16;16.50;99.90
58582;DHT22;44361;51.476;5.700;2023-03-29T12:45:44;16.40;99.90
58582;DHT22;44361;51.476;5.700;2023-03-29T12:48:21;16.20;99.90
58582;DHT22;44361;51.476;5.700;2023-03-29T12:50:59;16.20;99.90
58582;DHT22;44361;51.476;5.700;2023-03-29T12:53:38;16.10;99.90
58582;DHT22;44361;51.476;5.700;2023-03-29T12:56:07;16.10;99.90
58582;DHT22;44361;51.476;5.700;2023-03-29T12:58:54;16.00;99.90
58582;DHT22;44361;51.476;5.700;2023-03-29T13:03:53;15.90;99.90
58582;DHT22;44361;51.476;5.700;2023-03-29T13:06:49;16.20;99.90
58582;DHT22;44361;51.476;5.700;2023-03-29T13:09:25;16.50;99.90
58582;DHT22;44361;51.476;5.700;2023-03-29T13:14:36;16.90;99.90
58582;DHT22;44361;51.476;5.700;2023-03-29T13:17:07;17.00;99.80
58582;DHT22;44361;51.476;5.700;2023-03-29T13:25:22;17.00;99.10
58582;DHT22;44361;51.476;5.700;2023-03-29T13:28:05;16.80;99.00
58582;DHT22;44361;51.476;5.700;2023-03-29T13:33:47;16.70;98.90
58582;DHT22;44361;51.476;5.700;2023-03-29T13:39:19;16.60;98.90
58582;DHT22;44361;51.476;5.700;2023-03-29T13:41:49;16.80;99.00
58582;DHT22;44361;51.476;5.700;2023-03-29T13:44:25;16.70;98.90
58582;DHT22;44361;51.476;5.700;2023-03-29T13:47:03;16.50;98.40
58582;DHT22;44361;51.476;5.700;2023-03-29T13:49:31;16.50;99.00
58582;DHT22;44361;51.476;5.700;2023-03-29T13:52:03;16.60;99.10
58582;DHT22;44361;51.476;5.700;2023-03-29T13:54:32;16.70;98.90
58582;DHT22;44361;51.476;5.700;2023-03-29T13:59:55;16.90;98.60
58582;DHT22;44361;51.476;5.700;2023-03-29T14:02:41;16.80;98.70
58582;DHT22;44361;51.476;5.700;2023-03-29T14:05:11;16.90;99.10
58582;DHT22;44361;51.476;5.700;2023-03-29T14:07:40;17.20;98.60
58582;DHT22;44361;51.476;5.700;2023-03-29T14:10:12;17.20;98.40
58582;DHT22;44361;51.476;5.700;2023-03-29T14:12:39;17.10;98.40
58582;DHT22;44361;51.476;5.700;2023-03-29T14:15:05;16.70;98.30
58582;DHT22;44361;51.476;5.700;2023-03-29T14:17:31;16.80;98.50
58582;DHT22;44361;51.476;5.700;2023-03-29T14:20:00;16.90;99.00
58582;DHT22;44361;51.476;5.700;2023-03-29T14:22:32;17.00;99.10
58582;DHT22;44361;51.476;5.700;2023-03-29T14:25:04;17.10;98.90
58582;DHT22;44361;51.476;5.700;2023-03-29T14:27:31;17.10;98.20
58582;DHT22;44361;51.476;5.700;2023-03-29T14:29:57;17.10;98.60
58582;DHT22;44361;51.476;5.700;2023-03-29T14:32:30;16.90;99.00
58582;DHT22;44361;51.476;5.700;2023-03-29T14:34:56;16.90;99.20
58582;DHT22;44361;51.476;5.700;2023-03-29T14:37:31;16.90;99.60
58582;DHT22;44361;51.476;5.700;2023-03-29T14:39:57;17.00;99.20
58582;DHT22;44361;51.476;5.700;2023-03-29T14:42:25;16.90;99.50
58582;DHT22;44361;51.476;5.700;2023-03-29T14:44:57;16.90;99.30
58582;DHT22;44361;51.476;5.700;2023-03-29T14:47:26;16.80;99.60
58582;DHT22;44361;51.476;5.700;2023-03-29T14:49:54;16.80;99.30
58582;DHT22;44361;51.476;5.700;2023-03-29T14:52:22;16.80;99.60
58582;DHT22;44361;51.476;5.700;2023-03-29T14:54:51;16.80;99.60
58582;DHT22;44361;51.476;5.700;2023-03-29T14:57:18;16.70;99.90
58582;DHT22;44361;51.476;5.700;2023-03-29T14:59:52;16.60;99.60
58582;DHT22;44361;51.476;5.700;2023-03-29T15:02:30;16.60;99.80
58582;DHT22;44361;51.476;5.700;2023-03-29T15:05:00;16.70;99.90
58582;DHT22;44361;51.476;5.700;2023-03-29T15:07:33;16.80;99.80
58582;DHT22;44361;51.476;5.700;2023-03-29T15:10:01;16.80;99.90
58582;DHT22;44361;51.476;5.700;2023-03-29T15:12:30;17.00;99.90
58582;DHT22;44361;51.476;5.700;2023-03-29T15:14:57;17.10;99.90
58582;DHT22;44361;51.476;5.700;2023-03-29T15:17:29;17.10;99.40
58582;DHT22;44361;51.476;5.700;2023-03-29T15:23:18;17.30;98.90
58582;DHT22;44361;51.476;5.700;2023-03-29T15:25:53;17.10;99.30
58582;DHT22;44361;51.476;5.700;2023-03-29T15:28:30;17.20;99.90
58582;DHT22;44361;51.476;5.700;2023-03-29T15:31:03;17.60;99.90
58582;DHT22;44361;51.476;5.700;2023-03-29T15:33:39;17.90;99.30
58582;DHT22;44361;51.476;5.700;2023-03-29T15:36:07;17.70;99.10
58582;DHT22;44361;51.476;5.700;2023-03-29T15:38:34;17.50;99.60
58582;DHT22;44361;51.476;5.700;2023-03-29T15:41:01;17.50;99.50
58582;DHT22;44361;51.476;5.700;2023-03-29T15:43:27;17.30;99.50
58582;DHT22;44361;51.476;5.700;2023-03-29T15:45:52;17.00;99.60
58582;DHT22;44361;51.476;5.700;2023-03-29T15:48:23;16.80;99.90
58582;DHT22;44361;51.476;5.700;2023-03-29T15:50:49;16.50;99.90
58582;DHT22;44361;51.476;5.700;2023-03-29T15:53:15;16.40;99.90
58582;DHT22;44361;51.476;5.700;2023-03-29T15:55:44;16.40;99.90
58582;DHT22;44361;51.476;5.700;2023-03-29T15:58:15;16.40;99.90
58582;DHT22;44361;51.476;5.700;2023-03-29T16:00:57;16.40;99.90
58582;DHT22;44361;51.476;5.700;2023-03-29T16:03:24;16.30;99.90
58582;DHT22;44361;51.476;5.700;2023-03-29T16:05:52;16.40;99.90
58582;DHT22;44361;51.476;5.700;2023-03-29T16:08:21;16.40;99.90
58582;DHT22;44361;51.476;5.700;2023-03-29T16:10:46;16.40;99.90
58582;DHT22;44361;51.476;5.700;2023-03-29T16:13:13;16.40;99.90
58582;DHT22;44361;51.476;5.700;2023-03-29T16:15:40;16.40;99.90
58582;DHT22;44361;51.476;5.700;2023-03-29T16:18:07;16.40;99.90
58582;DHT22;44361;51.476;5.700;2023-03-29T16:20:32;16.40;99.90
58582;DHT22;44361;51.476;5.700;2023-03-29T16:22:58;16.30;99.90
58582;DHT22;44361;51.476;5.700;2023-03-29T16:25:23;16.30;99.90
58582;DHT22;44361;51.476;5.700;2023-03-29T16:27:50;16.20;99.90
58582;DHT22;44361;51.476;5.700;2023-03-29T16:30:17;16.20;99.90
58582;DHT22;44361;51.476;5.700;2023-03-29T16:32:43;16.20;99.90
58582;DHT22;44361;51.476;5.700;2023-03-29T16:35:18;16.20;99.90
58582;DHT22;44361;51.476;5.700;2023-03-29T16:37:45;16.20;99.90
58582;DHT22;44361;51.476;5.700;2023-03-29T16:40:11;16.20;99.90
58582;DHT22;44361;51.476;5.700;2023-03-29T16:42:38;16.30;99.90
58582;DHT22;44361;51.476;5.700;2023-03-29T16:45:03;16.30;99.90
58582;DHT22;44361;51.476;5.700;2023-03-29T16:47:29;16.30;99.90
58582;DHT22;44361;51.476;5.700;2023-03-29T16:49:55;16.20;99.90
58582;DHT22;44361;51.476;5.700;2023-03-29T16:52:20;16.10;99.90
58582;DHT22;44361;51.476;5.700;2023-03-29T16:54:47;16.00;99.90
58582;DHT22;44361;51.476;5.700;2023-03-29T16:57:12;16.00;99.90
58582;DHT22;44361;51.476;5.700;2023-03-29T16:59:38;15.90;99.90
58582;DHT22;44361;51.476;5.700;2023-03-29T17:02:06;15.80;99.90
58582;DHT22;44361;51.476;5.700;2023-03-29T17:04:31;15.80;99.90
58582;DHT22;44361;51.476;5.700;2023-03-29T17:06:57;15.80;99.90